createdAt,value
2018-10-11T00:00:01.300Z,95596.03
2018-10-11T00:02:30.568Z,95593.95
2018-10-11T00:04:59.723Z,95598.78
2018-10-11T00:07:28.856Z,95596.11
2018-10-11T00:09:57.963Z,95598.84
2018-10-11T00:12:27.129Z,95603.65
2018-10-11T00:14:56.235Z,95599.81
2018-10-11T00:17:25.389Z,95604.15
2018-10-11T00:19:54.531Z,95604.08
2018-10-11T00:22:23.995Z,95604.59
2018-10-11T00:24:53.083Z,95605.53
2018-10-11T00:27:22.357Z,95601.42
2018-10-11T00:29:51.525Z,95604.87
2018-10-11T00:32:20.685Z,95607.87
2018-10-11T00:34:49.840Z,95605.13
2018-10-11T00:37:18.957Z,95600.17
2018-10-11T00:39:48.129Z,95595.63
2018-10-11T00:42:17.277Z,95599.73
2018-10-11T00:44:46.341Z,95593.94
2018-10-11T00:47:15.445Z,95595.80
2018-10-11T00:49:44.572Z,95586.47
2018-10-11T00:52:13.749Z,95585.70
2018-10-11T00:54:42.864Z,95585.12
2018-10-11T00:57:11.972Z,95590.89
2018-10-11T00:59:41.160Z,95582.14
2018-10-11T01:02:10.329Z,95590.78
2018-10-11T01:04:46.149Z,95590.54
2018-10-11T01:07:15.333Z,95584.63
2018-10-11T01:09:44.452Z,95583.17
2018-10-11T01:12:13.609Z,95584.00
2018-10-11T01:14:42.796Z,95578.57
2018-10-11T01:17:11.920Z,95578.97
2018-10-11T01:19:41.109Z,95575.74
2018-10-11T01:22:10.204Z,95578.76
2018-10-11T01:24:39.745Z,95581.09
2018-10-11T01:27:08.865Z,95574.38
2018-10-11T01:29:38.570Z,95569.52
2018-10-11T01:32:07.809Z,95571.78
2018-10-11T01:34:36.996Z,95574.70
2018-10-11T01:37:06.363Z,95569.62
2018-10-11T01:39:35.509Z,95564.70
2018-10-11T01:42:04.700Z,95562.19
2018-10-11T01:44:33.817Z,95557.73
2018-10-11T01:47:04.010Z,95553.48
2018-10-11T01:49:33.097Z,95552.39
2018-10-11T01:52:02.216Z,95547.71
2018-10-11T01:54:31.405Z,95546.08
2018-10-11T01:57:00.697Z,95539.26
2018-10-11T01:59:29.828Z,95544.31
2018-10-11T02:01:58.944Z,95546.91
2018-10-11T02:04:28.154Z,95550.77
2018-10-11T02:06:57.316Z,95546.27
2018-10-11T02:09:26.419Z,95545.27
2018-10-11T02:11:55.588Z,95540.17
2018-10-11T02:14:24.791Z,95542.64
2018-10-11T02:16:53.872Z,95538.67
2018-10-11T02:19:22.984Z,95536.22
2018-10-11T02:21:52.155Z,95541.09
2018-10-11T02:24:21.374Z,95541.67
2018-10-11T02:26:50.448Z,95535.20
2018-10-11T02:29:19.612Z,95531.66
2018-10-11T02:31:48.836Z,95542.61
2018-10-11T02:34:17.935Z,95536.19
2018-10-11T02:36:47.087Z,95543.83
2018-10-11T02:39:16.211Z,95539.97
2018-10-11T02:41:45.388Z,95536.15
2018-10-11T02:44:14.475Z,95530.02
2018-10-11T02:46:43.628Z,95529.66
2018-10-11T02:49:12.769Z,95530.02
2018-10-11T02:51:41.933Z,95532.98
2018-10-11T02:54:11.039Z,95526.93
2018-10-11T02:56:40.329Z,95529.20
2018-10-11T02:59:21.549Z,95523.73
2018-10-11T03:01:50.696Z,95521.45
2018-10-11T03:04:19.796Z,95520.05
2018-10-11T03:06:49.005Z,95513.23
2018-10-11T03:09:18.206Z,95513.30
2018-10-11T03:11:47.332Z,95517.52
2018-10-11T03:14:16.441Z,95510.50
2018-10-11T03:16:45.517Z,95522.97
2018-10-11T03:19:14.628Z,95515.33
2018-10-11T03:21:44.548Z,95511.37
2018-10-11T03:24:13.842Z,95518.06
2018-10-11T03:26:43.783Z,95517.52
2018-10-11T03:29:12.949Z,95515.95
2018-10-11T03:31:42.173Z,95518.41
2018-10-11T03:34:11.256Z,95509.72
2018-10-11T03:36:40.353Z,95519.81
2018-10-11T03:39:09.542Z,95519.81
2018-10-11T03:41:38.771Z,95517.41
2018-10-11T03:44:07.880Z,95525.38
2018-10-11T03:46:37.077Z,95527.92
2018-10-11T03:49:06.596Z,95537.48
2018-10-11T03:51:35.772Z,95532.14
2018-10-11T03:54:04.878Z,95529.29
2018-10-11T03:56:33.963Z,95531.87
2018-10-11T03:59:03.104Z,95531.55
2018-10-11T04:01:32.260Z,95525.15
2018-10-11T04:04:01.360Z,95527.14
2018-10-11T04:06:30.504Z,95516.70
2018-10-11T04:08:59.592Z,95513.27
2018-10-11T04:11:28.692Z,95517.32
2018-10-11T04:13:57.884Z,95513.92
2018-10-11T04:16:27.049Z,95516.50
2018-10-11T04:18:56.127Z,95520.05
2018-10-11T04:21:25.229Z,95521.61
2018-10-11T04:23:54.423Z,95529.91
2018-10-11T04:26:23.533Z,95526.06
2018-10-11T04:28:52.633Z,95534.23
2018-10-11T04:31:21.769Z,95538.88
2018-10-11T04:33:51.005Z,95538.12
2018-10-11T04:36:20.096Z,95545.87
2018-10-11T04:38:49.208Z,95541.91
2018-10-11T04:41:18.292Z,95548.69
2018-10-11T04:43:47.372Z,95551.75
2018-10-11T04:46:16.495Z,95553.99
2018-10-11T04:48:45.664Z,95556.20
2018-10-11T04:51:14.754Z,95555.84
2018-10-11T04:53:43.912Z,95557.72
2018-10-11T04:56:12.976Z,95551.11
2018-10-11T04:58:42.052Z,95551.89
2018-10-11T05:01:11.243Z,95547.73
2018-10-11T05:03:40.304Z,95548.56
2018-10-11T05:06:09.455Z,95551.45
2018-10-11T05:08:38.545Z,95559.73
2018-10-11T05:11:07.829Z,95555.40
2018-10-11T05:13:41.844Z,95556.99
2018-10-11T05:16:11.298Z,95552.44
2018-10-11T05:18:41.704Z,95551.03
2018-10-11T05:21:10.816Z,95551.03
2018-10-11T05:23:40.676Z,95555.55
2018-10-11T05:26:09.902Z,95560.47
2018-10-11T05:28:38.981Z,95566.03
2018-10-11T05:31:08.110Z,95565.53
2018-10-11T05:33:37.606Z,95565.22
2018-10-11T05:36:06.808Z,95564.64
2018-10-11T05:38:35.880Z,95569.55
2018-10-11T05:41:05.904Z,95571.38
2018-10-11T05:43:35.420Z,95577.03
2018-10-11T05:46:06.752Z,95573.99
2018-10-11T05:48:35.848Z,95574.77
2018-10-11T05:51:05.260Z,95573.87
2018-10-11T05:53:34.421Z,95572.78
2018-10-11T05:56:03.568Z,95568.95
2018-10-11T05:58:32.755Z,95571.33
2018-10-11T06:01:01.920Z,95572.57
2018-10-11T06:03:31.006Z,95571.16
2018-10-11T06:06:00.116Z,95570.83
2018-10-11T06:08:29.336Z,95561.36
2018-10-11T06:10:58.423Z,95566.30
2018-10-11T06:13:27.572Z,95568.25
2018-10-11T06:15:56.669Z,95568.83
2018-10-11T06:18:25.903Z,95568.01
2018-10-11T06:20:55.168Z,95579.12
2018-10-11T06:23:24.407Z,95577.71
2018-10-11T06:25:53.672Z,95592.77
2018-10-11T06:28:23.004Z,95590.23
2018-10-11T06:30:52.088Z,95582.91
2018-10-11T06:33:21.240Z,95589.00
2018-10-11T06:35:50.752Z,95590.73
2018-10-11T06:38:19.881Z,95595.83
2018-10-11T06:40:49.081Z,95592.59
2018-10-11T06:43:18.225Z,95598.42
2018-10-11T06:45:47.497Z,95604.33
2018-10-11T06:48:16.697Z,95601.75
2018-10-11T06:50:46.109Z,95601.03
2018-10-11T06:53:15.375Z,95596.46
2018-10-11T06:55:44.497Z,95597.59
2018-10-11T06:58:13.682Z,95592.03
2018-10-11T07:00:42.792Z,95602.09
2018-10-11T07:03:11.979Z,95603.45
2018-10-11T07:05:41.355Z,95598.73
2018-10-11T07:08:10.308Z,95597.30
2018-10-11T07:10:39.397Z,95597.67
2018-10-11T07:13:09.000Z,95609.53
2018-10-11T07:15:38.109Z,95606.94
2018-10-11T07:18:07.228Z,95598.06
2018-10-11T07:20:36.313Z,95599.48
2018-10-11T07:23:05.489Z,95602.27
2018-10-11T07:25:34.554Z,95609.85
2018-10-11T07:28:03.657Z,95614.40
2018-10-11T07:30:32.728Z,95617.05
2018-10-11T07:33:01.844Z,95626.64
2018-10-11T07:35:31.210Z,95628.56
2018-10-11T07:38:00.092Z,95632.66
2018-10-11T07:40:29.289Z,95629.48
2018-10-11T07:42:58.324Z,95626.02
2018-10-11T07:45:27.526Z,95629.03
2018-10-11T07:47:56.802Z,95628.45
2018-10-11T07:50:25.928Z,95621.73
2018-10-11T07:52:55.152Z,95625.02
2018-10-11T07:55:24.224Z,95624.52
2018-10-11T07:57:53.426Z,95622.81
2018-10-11T08:00:22.636Z,95625.37
2018-10-11T08:02:51.743Z,95628.19
2018-10-11T08:05:20.889Z,95621.74
2018-10-11T08:07:50.103Z,95622.00
2018-10-11T08:10:19.210Z,95626.22
2018-10-11T08:12:48.401Z,95623.92
2018-10-11T08:15:17.514Z,95616.66
2018-10-11T08:17:46.916Z,95625.45
2018-10-11T08:20:15.854Z,95623.88
2018-10-11T08:22:44.966Z,95618.15
2018-10-11T08:25:14.302Z,95620.13
2018-10-11T08:27:43.280Z,95624.50
2018-10-11T08:30:12.461Z,95623.68
2018-10-11T08:32:41.840Z,95630.21
2018-10-11T08:35:10.711Z,95626.41
2018-10-11T08:37:39.945Z,95619.86
2018-10-11T08:40:09.079Z,95627.38
2018-10-11T08:42:38.177Z,95621.55
2018-10-11T08:45:07.419Z,95619.42
2018-10-11T08:47:36.507Z,95623.74
2018-10-11T08:50:05.749Z,95618.91
2018-10-11T08:52:34.825Z,95623.41
2018-10-11T08:55:03.933Z,95618.27
2018-10-11T08:57:33.034Z,95616.44
2018-10-11T09:00:02.137Z,95611.17
2018-10-11T09:02:31.217Z,95617.43
2018-10-11T09:05:00.332Z,95621.32
2018-10-11T09:07:29.420Z,95621.90
2018-10-11T09:09:58.521Z,95619.95
2018-10-11T09:12:27.640Z,95618.69
2018-10-11T09:14:56.725Z,95624.11
2018-10-11T09:17:26.000Z,95614.44
2018-10-11T09:19:55.127Z,95616.04
2018-10-11T09:22:24.206Z,95618.05
2018-10-11T09:24:53.386Z,95614.44
2018-10-11T09:27:22.460Z,95615.66
2018-10-11T09:29:51.591Z,95618.94
2018-10-11T09:32:20.660Z,95614.56
2018-10-11T09:34:50.359Z,95611.29
2018-10-11T09:37:19.602Z,95618.93
2018-10-11T09:39:48.708Z,95605.92
2018-10-11T09:42:17.800Z,95611.79
2018-10-11T09:44:47.255Z,95612.31
2018-10-11T09:47:16.379Z,95607.39
2018-10-11T09:49:46.273Z,95616.19
2018-10-11T09:52:15.906Z,95614.63
2018-10-11T09:54:45.035Z,95613.29
2018-10-11T09:57:17.658Z,95616.51
2018-10-11T09:59:46.811Z,95616.50
2018-10-11T10:02:16.120Z,95617.92
2018-10-11T10:04:46.356Z,95615.94
2018-10-11T10:07:15.524Z,95613.56
2018-10-11T10:09:45.498Z,95613.59
2018-10-11T10:12:15.257Z,95614.29
2018-10-11T10:14:44.930Z,95619.59
2018-10-11T10:17:14.036Z,95614.72
2018-10-11T10:19:43.692Z,95612.08
2018-10-11T10:22:12.829Z,95613.44
2018-10-11T10:24:42.020Z,95617.39
2018-10-11T10:27:11.335Z,95615.52
2018-10-11T10:29:40.359Z,95611.81
2018-10-11T10:32:09.550Z,95609.81
2018-10-11T10:34:38.840Z,95617.42
2018-10-11T10:37:08.036Z,95615.25
2018-10-11T10:39:37.169Z,95616.80
2018-10-11T10:42:06.429Z,95611.00
2018-10-11T10:44:35.602Z,95611.27
2018-10-11T10:47:04.715Z,95611.91
2018-10-11T10:49:33.901Z,95609.83
2018-10-11T10:52:03.052Z,95614.91
2018-10-11T10:54:33.388Z,95615.67
2018-10-11T10:57:02.922Z,95620.40
2018-10-11T10:59:32.055Z,95614.44
2018-10-11T11:02:01.215Z,95614.22
2018-10-11T11:04:30.319Z,95610.87
2018-10-11T11:06:59.519Z,95618.08
2018-10-11T11:09:28.747Z,95613.30
2018-10-11T11:11:57.936Z,95606.99
2018-10-11T11:14:27.227Z,95610.27
2018-10-11T11:16:56.947Z,95608.65
2018-10-11T11:19:26.044Z,95602.34
2018-10-11T11:21:55.227Z,95600.61
2018-10-11T11:24:24.811Z,95604.27
2018-10-11T11:26:53.965Z,95602.52
2018-10-11T11:29:23.683Z,95601.45
2018-10-11T11:31:52.837Z,95609.42
2018-10-11T11:34:21.997Z,95613.84
2018-10-11T11:36:51.122Z,95599.47
2018-10-11T11:39:20.237Z,95612.30
2018-10-11T11:41:49.469Z,95605.67
2018-10-11T11:44:18.639Z,95607.94
2018-10-11T11:46:47.755Z,95611.57
2018-10-11T11:49:17.333Z,95617.47
2018-10-11T11:51:46.461Z,95609.89
2018-10-11T11:54:19.441Z,95613.70
2018-10-11T11:56:48.853Z,95609.48
2018-10-11T11:59:17.994Z,95612.70
2018-10-11T12:01:47.139Z,95615.44
2018-10-11T12:04:16.211Z,95615.89
2018-10-11T12:06:45.402Z,95606.41
2018-10-11T12:09:15.136Z,95604.81
2018-10-11T12:11:44.272Z,95605.72
2018-10-11T12:14:13.495Z,95603.00
2018-10-11T12:16:42.674Z,95602.89
2018-10-11T12:19:12.174Z,95612.36
2018-10-11T12:21:41.269Z,95607.23
2018-10-11T12:24:10.473Z,95607.78
2018-10-11T12:26:39.614Z,95605.63
2018-10-11T12:29:08.798Z,95612.93
2018-10-11T12:31:37.957Z,95603.93
2018-10-11T12:34:07.117Z,95614.78
2018-10-11T12:36:36.369Z,95615.30
2018-10-11T12:39:07.105Z,95614.17
2018-10-11T12:41:36.184Z,95610.77
2018-10-11T12:44:05.397Z,95612.05
2018-10-11T12:46:35.162Z,95608.78
2018-10-11T12:49:03.681Z,95606.00
2018-10-11T12:51:32.818Z,95608.98
2018-10-11T12:54:01.889Z,95603.84
2018-10-11T12:56:31.153Z,95608.50
2018-10-11T12:59:00.274Z,95608.09
2018-10-11T13:01:29.375Z,95611.30
2018-10-11T13:03:58.480Z,95607.45
2018-10-11T13:06:27.700Z,95610.10
2018-10-11T13:08:56.852Z,95598.38
2018-10-11T13:11:25.915Z,95614.00
2018-10-11T13:13:55.108Z,95614.74
2018-10-11T13:16:24.236Z,95609.49
2018-10-11T13:18:53.372Z,95606.66
2018-10-11T13:21:22.466Z,95603.01
2018-10-11T13:23:51.656Z,95599.66
2018-10-11T13:26:20.731Z,95604.31
2018-10-11T13:28:49.953Z,95605.08
2018-10-11T13:31:19.109Z,95601.36
2018-10-11T13:33:51.819Z,95602.73
2018-10-11T13:36:17.317Z,95609.48
2018-10-11T13:38:46.449Z,95598.11
2018-10-11T13:41:15.655Z,95601.48
2018-10-11T13:43:44.707Z,95603.04
2018-10-11T13:46:18.757Z,95604.53
2018-10-11T13:48:48.009Z,95610.94
2018-10-11T13:51:17.122Z,95607.81
2018-10-11T13:53:49.948Z,95611.14
2018-10-11T13:56:15.923Z,95609.05
2018-10-11T13:58:45.147Z,95606.93
2018-10-11T14:01:14.373Z,95601.20
2018-10-11T14:03:43.608Z,95595.98
2018-10-11T14:06:12.795Z,95596.25
2018-10-11T14:08:42.187Z,95600.56
2018-10-11T14:11:11.328Z,95602.78
2018-10-11T14:13:40.795Z,95599.25
2018-10-11T14:16:09.996Z,95602.94
2018-10-11T14:18:39.553Z,95601.66
2018-10-11T14:21:09.678Z,95593.31
2018-10-11T14:23:39.112Z,95601.75
2018-10-11T14:26:08.355Z,95600.43
2018-10-11T14:28:37.535Z,95606.54
2018-10-11T14:31:06.713Z,95595.73
2018-10-11T14:33:35.794Z,95592.35
2018-10-11T14:36:04.856Z,95590.08
2018-10-11T14:38:34.160Z,95594.41
2018-10-11T14:41:03.401Z,95594.73
2018-10-11T14:43:32.630Z,95584.14
2018-10-11T14:46:01.716Z,95586.69
2018-10-11T14:48:30.804Z,95593.77
2018-10-11T14:50:59.986Z,95593.23
2018-10-11T14:53:29.020Z,95595.30
2018-10-11T14:55:58.206Z,95594.84
2018-10-11T14:58:27.333Z,95591.39
2018-10-11T15:00:56.511Z,95591.34
2018-10-11T15:03:25.691Z,95587.63
2018-10-11T15:05:54.877Z,95582.22
2018-10-11T15:08:23.932Z,95579.16
2018-10-11T15:10:53.442Z,95582.75
2018-10-11T15:13:23.284Z,95577.33
2018-10-11T15:15:52.515Z,95587.16
2018-10-11T15:18:21.695Z,95578.41
2018-10-11T15:20:50.901Z,95579.55
2018-10-11T15:23:20.385Z,95581.75
2018-10-11T15:25:49.481Z,95579.09
2018-10-11T15:28:18.576Z,95591.67
2018-10-11T15:30:47.705Z,95586.83
2018-10-11T15:33:16.875Z,95588.09
2018-10-11T15:35:46.071Z,95590.40
2018-10-11T15:38:15.198Z,95586.05
2018-10-11T15:40:44.351Z,95584.30
2018-10-11T15:43:13.586Z,95583.08
2018-10-11T15:45:42.693Z,95586.67
2018-10-11T15:48:11.972Z,95588.71
2018-10-11T15:50:41.134Z,95588.01
2018-10-11T15:53:10.436Z,95593.69
2018-10-11T15:55:39.609Z,95590.77
2018-10-11T15:58:08.839Z,95592.42
2018-10-11T16:00:37.960Z,95598.71
2018-10-11T16:03:07.069Z,95601.24
2018-10-11T16:05:36.209Z,95603.67
2018-10-11T16:08:05.328Z,95595.83
2018-10-11T16:10:34.512Z,95598.48
2018-10-11T16:13:03.710Z,95604.97
2018-10-11T16:15:32.843Z,95604.84
2018-10-11T16:18:01.952Z,95605.22
2018-10-11T16:20:31.133Z,95607.94
2018-10-11T16:23:00.275Z,95608.16
2018-10-11T16:25:29.496Z,95614.03
2018-10-11T16:27:58.633Z,95610.53
2018-10-11T16:30:27.835Z,95617.07
2018-10-11T16:32:57.017Z,95614.73
2018-10-11T16:35:26.195Z,95616.84
2018-10-11T16:37:55.292Z,95620.00
2018-10-11T16:40:24.487Z,95626.75
2018-10-11T16:42:53.603Z,95627.37
2018-10-11T16:45:22.936Z,95629.09
2018-10-11T16:47:52.079Z,95635.11
2018-10-11T16:50:21.331Z,95637.11
2018-10-11T16:52:50.459Z,95638.12
2018-10-11T16:55:19.576Z,95639.60
2018-10-11T16:57:48.680Z,95638.45
2018-10-11T17:00:17.904Z,95637.77
2018-10-11T17:02:47.124Z,95642.89
2018-10-11T17:05:16.241Z,95644.18
2018-10-11T17:07:45.473Z,95640.36
2018-10-11T17:10:14.559Z,95644.51
2018-10-11T17:12:43.661Z,95647.76
2018-10-11T17:15:12.851Z,95654.20
2018-10-11T17:17:41.943Z,95657.22
2018-10-11T17:20:11.031Z,95662.98
2018-10-11T17:22:40.226Z,95655.59
2018-10-11T17:25:09.427Z,95657.11
2018-10-11T17:27:38.573Z,95656.75
2018-10-11T17:30:07.813Z,95654.67
2018-10-11T17:32:36.892Z,95655.46
2018-10-11T17:35:06.125Z,95657.42
2018-10-11T17:37:35.228Z,95655.83
2018-10-11T17:40:04.405Z,95658.69
2018-10-11T17:42:33.510Z,95656.04
2018-10-11T17:45:02.724Z,95663.98
2018-10-11T17:47:31.902Z,95664.67
2018-10-11T17:50:01.006Z,95667.31
2018-10-11T17:52:30.186Z,95663.02
2018-10-11T17:54:59.480Z,95659.64
2018-10-11T17:57:28.596Z,95665.61
2018-10-11T17:59:57.672Z,95662.27
2018-10-11T18:02:26.762Z,95661.64
2018-10-11T18:04:55.942Z,95669.89
2018-10-11T18:07:25.122Z,95670.12
2018-10-11T18:09:54.247Z,95669.47
2018-10-11T18:12:23.288Z,95670.48
2018-10-11T18:14:52.469Z,95675.58
2018-10-11T18:17:21.608Z,95672.24
2018-10-11T18:19:50.768Z,95676.73
2018-10-11T18:22:20.487Z,95682.72
2018-10-11T18:24:49.566Z,95675.30
2018-10-11T18:27:18.655Z,95685.42
2018-10-11T18:29:47.775Z,95688.05
2018-10-11T18:32:16.845Z,95692.91
2018-10-11T18:34:45.936Z,95691.91
2018-10-11T18:37:15.046Z,95700.05
2018-10-11T18:39:44.186Z,95702.36
2018-10-11T18:42:13.356Z,95698.00
2018-10-11T18:44:42.571Z,95703.17
2018-10-11T18:47:11.622Z,95701.00
2018-10-11T18:49:40.709Z,95707.23
2018-10-11T18:52:09.811Z,95706.44
2018-10-11T18:54:38.897Z,95706.77
2018-10-11T18:57:08.005Z,95704.55
2018-10-11T18:59:37.211Z,95706.20
2018-10-11T19:02:06.427Z,95701.38
2018-10-11T19:04:35.696Z,95703.16
2018-10-11T19:07:04.819Z,95709.20
2018-10-11T19:09:33.904Z,95707.27
2018-10-11T19:12:03.020Z,95705.27
2018-10-11T19:14:32.198Z,95704.00
2018-10-11T19:17:01.485Z,95713.53
2018-10-11T19:19:30.593Z,95721.86
2018-10-11T19:21:59.797Z,95715.67
2018-10-11T19:24:28.902Z,95720.58
2018-10-11T19:26:58.089Z,95727.84
2018-10-11T19:29:27.164Z,95723.85
2018-10-11T19:31:56.258Z,95723.53
2018-10-11T19:34:26.229Z,95729.05
2018-10-11T19:36:55.389Z,95726.46
2018-10-11T19:39:24.719Z,95721.59
2018-10-11T19:41:53.780Z,95718.13
2018-10-11T19:44:22.950Z,95723.27
2018-10-11T19:46:52.068Z,95720.38
2018-10-11T19:49:21.396Z,95718.13
2018-10-11T19:51:50.608Z,95722.08
2018-10-11T19:54:19.749Z,95723.41
2018-10-11T19:56:48.874Z,95726.46
2018-10-11T19:59:17.985Z,95730.47
2018-10-11T20:01:47.668Z,95735.23
2018-10-11T20:04:16.764Z,95729.07
2018-10-11T20:06:45.868Z,95729.55
2018-10-11T20:09:14.947Z,95736.86
2018-10-11T20:11:44.143Z,95740.52
2018-10-11T20:14:13.249Z,95738.88
2018-10-11T20:16:42.335Z,95727.55
2018-10-11T20:19:11.567Z,95734.02
2018-10-11T20:21:40.725Z,95728.02
2018-10-11T20:24:09.807Z,95733.85
2018-10-11T20:26:38.892Z,95735.33
2018-10-11T20:29:08.013Z,95739.56
2018-10-11T20:31:37.112Z,95737.37
2018-10-11T20:34:06.521Z,95741.91
2018-10-11T20:36:35.625Z,95736.91
2018-10-11T20:39:05.873Z,95739.06
2018-10-11T20:41:35.048Z,95734.55
2018-10-11T20:44:04.173Z,95735.02
2018-10-11T20:46:33.321Z,95734.55
2018-10-11T20:49:02.390Z,95745.91
2018-10-11T20:51:32.153Z,95758.59
2018-10-11T20:54:01.321Z,95756.37
2018-10-11T20:56:30.418Z,95756.77
2018-10-11T20:58:59.802Z,95754.86
2018-10-11T21:01:28.884Z,95763.27
2018-10-11T21:03:58.010Z,95763.45
2018-10-11T21:06:27.165Z,95769.28
2018-10-11T21:08:57.066Z,95769.37
2018-10-11T21:11:26.212Z,95771.22
2018-10-11T21:13:55.316Z,95776.34
2018-10-11T21:16:24.392Z,95774.23
2018-10-11T21:18:53.488Z,95775.67
2018-10-11T21:21:22.612Z,95774.86
2018-10-11T21:23:51.748Z,95772.34
2018-10-11T21:26:20.816Z,95776.89
2018-10-11T21:28:50.032Z,95782.81
2018-10-11T21:31:19.112Z,95782.52
2018-10-11T21:33:48.180Z,95784.29
2018-10-11T21:36:17.276Z,95779.91
2018-10-11T21:38:46.365Z,95779.99
2018-10-11T21:41:15.436Z,95779.27
2018-10-11T21:43:44.500Z,95781.95
2018-10-11T21:46:13.746Z,95780.23
2018-10-11T21:48:42.861Z,95782.58
2018-10-11T21:51:11.956Z,95781.19
2018-10-11T21:53:41.068Z,95778.59
2018-10-11T21:56:10.196Z,95783.97
2018-10-11T21:58:39.292Z,95788.42
2018-10-11T22:01:13.613Z,95794.25
2018-10-11T22:03:42.751Z,95802.01
2018-10-11T22:06:12.049Z,95804.77
2018-10-11T22:08:41.373Z,95800.55
2018-10-11T22:11:10.980Z,95801.63
2018-10-11T22:13:40.134Z,95807.87
2018-10-11T22:16:09.666Z,95808.27
2018-10-11T22:18:39.252Z,95818.06
2018-10-11T22:21:09.061Z,95811.97
2018-10-11T22:23:38.692Z,95816.80
2018-10-11T22:26:08.493Z,95826.31
2018-10-11T22:28:37.994Z,95818.77
2018-10-11T22:31:07.384Z,95822.08
2018-10-11T22:33:36.599Z,95816.23
2018-10-11T22:36:05.676Z,95815.59
2018-10-11T22:38:34.820Z,95820.88
2018-10-11T22:41:03.957Z,95822.52
2018-10-11T22:43:33.051Z,95827.25
2018-10-11T22:46:02.341Z,95834.27
2018-10-11T22:48:31.431Z,95827.98
2018-10-11T22:51:00.534Z,95832.80
2018-10-11T22:53:29.617Z,95837.97
2018-10-11T22:55:58.716Z,95839.70
2018-10-11T22:58:27.822Z,95836.56
2018-10-11T23:00:56.881Z,95842.45
2018-10-11T23:03:25.996Z,95838.67
2018-10-11T23:05:55.091Z,95846.15
2018-10-11T23:08:24.211Z,95849.29
2018-10-11T23:10:53.326Z,95847.15
2018-10-11T23:13:22.400Z,95852.82
2018-10-11T23:15:51.544Z,95860.25
2018-10-11T23:18:20.637Z,95852.69
2018-10-11T23:20:49.780Z,95856.19
2018-10-11T23:23:18.884Z,95864.66
2018-10-11T23:25:48.015Z,95861.38
2018-10-11T23:28:17.103Z,95868.70
2018-10-11T23:30:46.218Z,95865.13
2018-10-11T23:33:15.320Z,95869.18
2018-10-11T23:35:44.427Z,95870.20
2018-10-11T23:38:13.527Z,95869.72
2018-10-11T23:40:42.636Z,95868.09
2018-10-11T23:43:11.755Z,95873.44
2018-10-11T23:45:40.855Z,95878.77
2018-10-11T23:48:09.967Z,95886.64
2018-10-11T23:50:39.052Z,95884.72
2018-10-11T23:53:08.253Z,95895.64
2018-10-11T23:55:37.353Z,95895.19
2018-10-11T23:58:06.473Z,95895.05
